createdAt,value
2022-11-07T00:02:15.711Z,98664.31
2022-11-07T00:04:42.288Z,98663.34
2022-11-07T00:07:09.176Z,98668.63
2022-11-07T00:09:35.694Z,98668.81
2022-11-07T00:12:02.164Z,98670.53
2022-11-07T00:14:30.074Z,98680.75
2022-11-07T00:16:56.464Z,98689.00
2022-11-07T00:19:22.804Z,98694.19
2022-11-07T00:21:50.205Z,98695.66
2022-11-07T00:24:17.965Z,98694.81
2022-11-07T00:26:45.321Z,98700.28
2022-11-07T00:29:18.818Z,98702.06
2022-11-07T00:31:46.510Z,98709.34
2022-11-07T00:34:13.071Z,98716.81
2022-11-07T00:36:39.757Z,98714.84
2022-11-07T00:39:06.465Z,98719.63
2022-11-07T00:41:33.325Z,98730.25
2022-11-07T00:43:59.850Z,98726.06
2022-11-07T00:46:26.268Z,98728.81
2022-11-07T00:48:52.549Z,98733.03
2022-11-07T00:51:25.439Z,98737.16
2022-11-07T00:53:52.017Z,98740.56
2022-11-07T00:56:24.135Z,98740.56
2022-11-07T00:58:58.489Z,98749.72
2022-11-07T01:01:27.724Z,98747.28
2022-11-07T01:03:55.669Z,98753.25
2022-11-07T01:06:22.773Z,98757.72
2022-11-07T01:08:49.351Z,98762.88
2022-11-07T01:11:15.951Z,98755.16
2022-11-07T01:13:42.286Z,98753.94
2022-11-07T01:16:10.177Z,98754.16
2022-11-07T01:18:36.899Z,98751.84
2022-11-07T01:21:10.968Z,98756.81
2022-11-07T01:23:41.620Z,98749.56
2022-11-07T01:26:09.944Z,98749.63
2022-11-07T01:28:36.641Z,98747.09
2022-11-07T01:31:05.286Z,98741.53
2022-11-07T01:33:31.928Z,98746.16
2022-11-07T01:36:07.754Z,98738.78
2022-11-07T01:38:36.007Z,98728.03
2022-11-07T01:41:03.148Z,98735.63
2022-11-07T01:43:46.842Z,98737.84
2022-11-07T01:46:13.759Z,98735.84
2022-11-07T01:48:44.406Z,98743.97
2022-11-07T01:51:12.772Z,98741.03
2022-11-07T01:53:40.318Z,98747.91
2022-11-07T01:56:13.479Z,98737.63
2022-11-07T01:58:39.891Z,98740.34
2022-11-07T02:01:06.289Z,98746.56
2022-11-07T02:03:33.074Z,98743.31
2022-11-07T02:06:06.279Z,98744.03
2022-11-07T02:08:34.551Z,98753.88
2022-11-07T02:11:03.646Z,98749.94
2022-11-07T02:13:32.051Z,98752.59
2022-11-07T02:16:02.132Z,98747.63
2022-11-07T02:18:29.566Z,98747.63
2022-11-07T02:21:07.850Z,98748.59
2022-11-07T02:23:53.389Z,98751.22
2022-11-07T02:26:20.606Z,98740.03
2022-11-07T02:28:48.435Z,98747.16
2022-11-07T02:31:14.991Z,98744.31
2022-11-07T02:33:41.661Z,98739.97
2022-11-07T02:36:14.379Z,98744.06
2022-11-07T02:38:40.785Z,98748.66
2022-11-07T02:41:12.020Z,98753.63
2022-11-07T02:43:42.706Z,98744.66
2022-11-07T02:46:11.678Z,98745.28
2022-11-07T02:48:50.651Z,98746.16
2022-11-07T02:51:17.492Z,98746.25
2022-11-07T02:53:44.037Z,98746.88
2022-11-07T02:56:10.706Z,98745.53
2022-11-07T02:58:37.306Z,98750.13
2022-11-07T03:01:04.058Z,98748.81
2022-11-07T03:03:31.122Z,98751.31
2022-11-07T03:05:57.765Z,98746.63
2022-11-07T03:08:24.305Z,98744.63
2022-11-07T03:10:50.656Z,98742.63
2022-11-07T03:13:17.357Z,98749.41
2022-11-07T03:15:44.084Z,98748.03
2022-11-07T03:18:10.456Z,98740.72
2022-11-07T03:20:36.773Z,98740.53
2022-11-07T03:23:03.514Z,98741.34
2022-11-07T03:25:29.968Z,98743.19
2022-11-07T03:27:56.612Z,98739.50
2022-11-07T03:30:23.795Z,98741.81
2022-11-07T03:32:53.934Z,98741.66
2022-11-07T03:35:21.369Z,98744.47
2022-11-07T03:37:49.557Z,98749.78
2022-11-07T03:40:17.241Z,98755.31
2022-11-07T03:42:45.139Z,98743.03
2022-11-07T03:45:13.924Z,98746.75
2022-11-07T03:47:42.152Z,98740.78
2022-11-07T03:50:11.432Z,98752.72
2022-11-07T03:52:37.813Z,98750.25
2022-11-07T03:55:04.892Z,98755.72
2022-11-07T03:57:31.326Z,98764.34
2022-11-07T03:59:57.680Z,98756.38
2022-11-07T04:02:24.229Z,98762.72
2022-11-07T04:04:50.840Z,98770.50
2022-11-07T04:07:17.260Z,98774.34
2022-11-07T04:09:43.604Z,98772.34
2022-11-07T04:12:10.227Z,98775.16
2022-11-07T04:14:36.528Z,98769.38
2022-11-07T04:17:03.219Z,98780.84
2022-11-07T04:19:29.559Z,98773.41
2022-11-07T04:21:55.956Z,98780.72
2022-11-07T04:24:22.469Z,98777.44
2022-11-07T04:26:48.828Z,98783.75
2022-11-07T04:29:15.271Z,98782.91
2022-11-07T04:31:41.730Z,98782.25
2022-11-07T04:34:08.073Z,98786.59
2022-11-07T04:36:34.511Z,98780.44
2022-11-07T04:39:00.874Z,98782.44
2022-11-07T04:41:27.293Z,98792.63
2022-11-07T04:43:53.684Z,98790.13
2022-11-07T04:46:20.021Z,98789.50
2022-11-07T04:48:46.396Z,98779.22
2022-11-07T04:51:16.540Z,98783.06
2022-11-07T04:53:43.122Z,98782.22
2022-11-07T04:56:09.719Z,98791.84
2022-11-07T04:58:36.099Z,98784.53
2022-11-07T05:01:02.396Z,98796.44
2022-11-07T05:03:28.953Z,98802.59
2022-11-07T05:05:55.469Z,98805.44
2022-11-07T05:08:21.892Z,98806.44
2022-11-07T05:10:48.299Z,98807.09
2022-11-07T05:13:14.980Z,98802.13
2022-11-07T05:15:41.800Z,98796.50
2022-11-07T05:18:10.658Z,98807.13
2022-11-07T05:20:38.544Z,98808.81
2022-11-07T05:23:05.968Z,98809.63
2022-11-07T05:25:32.324Z,98811.09
2022-11-07T05:27:58.698Z,98813.41
2022-11-07T05:30:25.159Z,98811.56
2022-11-07T05:32:51.575Z,98815.88
2022-11-07T05:35:17.948Z,98806.91
2022-11-07T05:37:44.267Z,98810.41
2022-11-07T05:40:11.427Z,98814.03
2022-11-07T05:42:37.906Z,98813.41
2022-11-07T05:45:04.872Z,98810.91
2022-11-07T05:47:31.408Z,98814.41
2022-11-07T05:49:57.997Z,98820.06
2022-11-07T05:52:24.331Z,98825.38
2022-11-07T05:54:51.333Z,98824.56
2022-11-07T05:57:17.985Z,98822.72
2022-11-07T05:59:44.411Z,98826.69
2022-11-07T06:02:12.063Z,98826.50
2022-11-07T06:04:38.815Z,98814.03
2022-11-07T06:07:05.153Z,98826.81
2022-11-07T06:09:31.556Z,98832.75
2022-11-07T06:11:57.944Z,98835.91
2022-11-07T06:14:24.363Z,98843.53
2022-11-07T06:16:50.776Z,98846.47
2022-11-07T06:19:17.139Z,98852.94
2022-11-07T06:21:43.862Z,98843.47
2022-11-07T06:24:15.060Z,98832.00
2022-11-07T06:26:42.366Z,98826.34
2022-11-07T06:29:08.762Z,98828.84
2022-11-07T06:31:35.256Z,98836.63
2022-11-07T06:34:01.824Z,98827.81
2022-11-07T06:36:28.321Z,98826.81
2022-11-07T06:38:54.674Z,98828.47
2022-11-07T06:41:21.128Z,98828.75
2022-11-07T06:43:47.507Z,98838.50
2022-11-07T06:46:14.185Z,98838.50
2022-11-07T06:48:40.793Z,98845.94
2022-11-07T06:51:08.338Z,98842.25
2022-11-07T06:53:36.333Z,98838.25
2022-11-07T06:56:04.861Z,98843.47
2022-11-07T06:58:31.446Z,98845.72
2022-11-07T07:01:06.328Z,98845.53
2022-11-07T07:03:32.858Z,98855.19
2022-11-07T07:06:03.781Z,98854.09
2022-11-07T07:08:30.341Z,98852.56
2022-11-07T07:10:57.158Z,98852.28
2022-11-07T07:13:23.526Z,98863.38
2022-11-07T07:15:57.412Z,98855.84
2022-11-07T07:18:24.644Z,98857.59
2022-11-07T07:20:52.530Z,98859.53
2022-11-07T07:23:20.907Z,98868.25
2022-11-07T07:25:47.882Z,98861.72
2022-11-07T07:28:14.197Z,98863.66
2022-11-07T07:30:40.640Z,98868.84
2022-11-07T07:33:07.148Z,98869.56
2022-11-07T07:35:33.664Z,98873.91
2022-11-07T07:38:00.250Z,98878.28
2022-11-07T07:40:28.115Z,98873.47
2022-11-07T07:42:54.525Z,98876.16
2022-11-07T07:45:20.931Z,98872.94
2022-11-07T07:47:47.568Z,98873.13
2022-11-07T07:50:14.241Z,98873.19
2022-11-07T07:52:40.666Z,98869.53
2022-11-07T07:55:08.108Z,98873.91
2022-11-07T07:57:47.210Z,98866.28
2022-11-07T08:00:13.955Z,98876.56
2022-11-07T08:02:40.744Z,98876.97
2022-11-07T08:05:07.641Z,98867.16
2022-11-07T08:07:34.022Z,98872.56
2022-11-07T08:10:09.884Z,98874.13
2022-11-07T08:12:49.006Z,98865.19
2022-11-07T08:15:17.106Z,98871.38
2022-11-07T08:17:43.805Z,98869.59
2022-11-07T08:20:12.819Z,98866.56
2022-11-07T08:22:39.728Z,98866.06
2022-11-07T08:25:08.270Z,98875.88
2022-11-07T08:27:35.083Z,98867.91
2022-11-07T08:30:01.857Z,98872.34
2022-11-07T08:32:29.011Z,98877.81
2022-11-07T08:34:55.821Z,98876.63
2022-11-07T08:37:22.952Z,98887.34
2022-11-07T08:39:49.505Z,98883.09
2022-11-07T08:42:16.415Z,98879.06
2022-11-07T08:44:43.350Z,98880.69
2022-11-07T08:47:09.720Z,98881.94
2022-11-07T08:49:36.079Z,98876.59
2022-11-07T08:52:02.564Z,98875.50
2022-11-07T08:54:28.947Z,98874.09
2022-11-07T08:56:55.400Z,98877.56
2022-11-07T08:59:21.771Z,98880.91
2022-11-07T09:02:26.567Z,98873.41
2022-11-07T09:04:34.737Z,98864.22
2022-11-07T09:07:01.422Z,98862.75
2022-11-07T09:09:27.778Z,98860.13
2022-11-07T09:11:54.597Z,98857.75
2022-11-07T09:14:21.133Z,98860.19
2022-11-07T09:16:47.625Z,98857.50
2022-11-07T09:19:13.983Z,98847.03
2022-11-07T09:21:40.451Z,98856.13
2022-11-07T09:24:07.202Z,98858.38
2022-11-07T09:26:33.743Z,98857.34
2022-11-07T09:29:01.365Z,98856.50
2022-11-07T09:31:27.874Z,98858.75
2022-11-07T09:33:54.331Z,98871.91
2022-11-07T09:36:20.735Z,98867.41
2022-11-07T09:38:47.292Z,98875.88
2022-11-07T09:41:47.744Z,98881.63
2022-11-07T09:44:47.468Z,98874.03
2022-11-07T09:47:39.437Z,98883.31
2022-11-07T09:50:14.026Z,98876.38
2022-11-07T09:52:49.336Z,98882.44
2022-11-07T09:55:38.528Z,98871.31
2022-11-07T09:58:14.651Z,98871.28
2022-11-07T10:00:41.276Z,98872.97
2022-11-07T10:03:09.656Z,98871.75
2022-11-07T10:06:02.833Z,98868.28
2022-11-07T10:08:53.075Z,98857.75
2022-11-07T10:11:37.474Z,98862.88
2022-11-07T10:14:16.185Z,98875.63
2022-11-07T10:16:55.249Z,98874.84
2022-11-07T10:19:33.828Z,98880.00
2022-11-07T10:22:09.270Z,98864.31
2022-11-07T10:24:47.418Z,98876.50
2022-11-07T10:27:14.076Z,98864.66
2022-11-07T10:29:46.932Z,98864.22
2022-11-07T10:32:44.914Z,98873.28
2022-11-07T10:35:29.465Z,98870.00
2022-11-07T10:37:58.578Z,98861.13
2022-11-07T10:40:33.680Z,98855.56
2022-11-07T10:43:02.800Z,98855.25
2022-11-07T10:45:29.586Z,98853.69
2022-11-07T10:48:04.894Z,98851.00
2022-11-07T10:50:31.602Z,98854.03
2022-11-07T10:52:59.756Z,98843.44
2022-11-07T10:55:28.191Z,98831.75
2022-11-07T10:57:59.460Z,98831.00
2022-11-07T11:00:29.859Z,98833.38
2022-11-07T11:02:56.642Z,98828.06
2022-11-07T11:05:27.728Z,98831.38
2022-11-07T11:07:56.496Z,98835.72
2022-11-07T11:10:28.971Z,98822.81
2022-11-07T11:12:55.433Z,98821.53
2022-11-07T11:15:24.878Z,98822.19
2022-11-07T11:18:02.578Z,98820.66
2022-11-07T11:20:50.181Z,98816.50
2022-11-07T11:23:23.700Z,98818.06
2022-11-07T11:25:52.697Z,98817.53
2022-11-07T11:28:34.073Z,98815.72
2022-11-07T11:31:12.852Z,98812.50
2022-11-07T11:33:47.587Z,98809.97
2022-11-07T11:36:21.582Z,98810.22
2022-11-07T11:38:52.855Z,98805.72
2022-11-07T11:41:32.388Z,98813.22
2022-11-07T11:44:19.285Z,98812.47
2022-11-07T11:46:55.432Z,98809.44
2022-11-07T11:49:28.947Z,98800.88
2022-11-07T11:52:08.366Z,98811.34
2022-11-07T11:54:35.176Z,98805.13
2022-11-07T11:57:08.122Z,98811.84
2022-11-07T11:59:39.069Z,98804.16
2022-11-07T12:02:33.335Z,98805.78
2022-11-07T12:05:15.034Z,98807.84
2022-11-07T12:08:01.566Z,98801.78
2022-11-07T12:10:46.412Z,98811.41
2022-11-07T12:13:20.947Z,98816.50
2022-11-07T12:16:09.319Z,98812.91
2022-11-07T12:18:43.377Z,98807.06
2022-11-07T12:21:21.431Z,98814.94
2022-11-07T12:24:08.255Z,98803.31
2022-11-07T12:26:43.942Z,98810.94
2022-11-07T12:29:35.463Z,98808.16
2022-11-07T12:32:20.473Z,98802.34
2022-11-07T12:35:06.258Z,98802.59
2022-11-07T12:37:57.548Z,98803.41
2022-11-07T12:40:54.548Z,98800.66
2022-11-07T12:43:39.505Z,98791.53
2022-11-07T12:46:27.232Z,98793.28
2022-11-07T12:49:13.950Z,98785.19
2022-11-07T12:51:46.757Z,98781.81
2022-11-07T12:54:57.963Z,98781.59
2022-11-07T12:57:30.880Z,98775.72
2022-11-07T13:00:29.479Z,98773.38
2022-11-07T13:03:13.281Z,98774.94
2022-11-07T13:05:55.326Z,98774.88
2022-11-07T13:08:35.214Z,98780.06
2022-11-07T13:11:18.259Z,98772.81
2022-11-07T13:13:47.281Z,98770.50
2022-11-07T13:16:26.397Z,98762.56
2022-11-07T13:18:52.866Z,98774.06
2022-11-07T13:21:19.498Z,98772.34
2022-11-07T13:23:47.154Z,98775.72
2022-11-07T13:26:45.003Z,98777.13
2022-11-07T13:29:02.130Z,98774.88
2022-11-07T13:31:35.693Z,98771.16
2022-11-07T13:34:22.215Z,98768.03
2022-11-07T13:36:50.727Z,98771.00
2022-11-07T13:39:18.783Z,98771.91
2022-11-07T13:41:46.088Z,98772.81
2022-11-07T13:44:21.943Z,98764.44
2022-11-07T13:46:55.586Z,98770.25
2022-11-07T13:49:30.130Z,98764.97
2022-11-07T13:52:04.099Z,98770.56
2022-11-07T13:54:53.126Z,98772.41
2022-11-07T13:57:28.276Z,98763.38
2022-11-07T14:00:09.819Z,98759.00
2022-11-07T14:02:36.835Z,98760.97
2022-11-07T14:05:18.950Z,98762.50
2022-11-07T14:07:56.745Z,98763.56
2022-11-07T14:10:23.157Z,98759.44
2022-11-07T14:12:53.129Z,98758.63
2022-11-07T14:15:19.905Z,98756.97
2022-11-07T14:17:47.218Z,98762.78
2022-11-07T14:20:16.402Z,98759.97
2022-11-07T14:22:58.048Z,98768.25
2022-11-07T14:25:28.777Z,98776.13
2022-11-07T14:27:55.144Z,98769.56
2022-11-07T14:30:23.017Z,98782.41
2022-11-07T14:33:00.677Z,98777.13
2022-11-07T14:35:33.456Z,98774.66
2022-11-07T14:38:11.393Z,98765.41
2022-11-07T14:40:41.841Z,98773.09
2022-11-07T14:43:17.608Z,98773.59
2022-11-07T14:48:32.749Z,98779.94
2022-11-07T14:51:00.568Z,98772.31
2022-11-07T14:53:42.728Z,98774.25
2022-11-07T14:56:13.095Z,98784.25
2022-11-07T14:58:39.792Z,98782.66
2022-11-07T15:01:06.303Z,98778.97
2022-11-07T15:03:37.390Z,98787.91
2022-11-07T15:06:04.451Z,98787.34
2022-11-07T15:08:34.038Z,98783.03
2022-11-07T15:11:05.298Z,98788.41
2022-11-07T15:13:32.434Z,98783.72
2022-11-07T15:16:06.310Z,98779.22
2022-11-07T15:18:38.724Z,98783.97
2022-11-07T15:21:06.263Z,98772.63
2022-11-07T15:23:35.598Z,98780.72
2022-11-07T15:26:08.021Z,98779.75
2022-11-07T15:28:46.843Z,98785.13
2022-11-07T15:31:28.760Z,98784.78
2022-11-07T15:33:57.884Z,98777.81
2022-11-07T15:36:25.380Z,98793.13
2022-11-07T15:38:52.575Z,98778.31
2022-11-07T15:41:19.289Z,98790.31
2022-11-07T15:43:45.831Z,98783.75
2022-11-07T15:46:19.008Z,98791.00
2022-11-07T15:48:45.410Z,98785.88
2022-11-07T15:51:11.859Z,98782.00
2022-11-07T15:53:38.194Z,98787.56
2022-11-07T15:56:05.745Z,98790.91
2022-11-07T15:58:32.214Z,98798.16
2022-11-07T16:00:58.855Z,98790.72
2022-11-07T16:03:27.093Z,98796.31
2022-11-07T16:05:57.218Z,98799.63
2022-11-07T16:08:24.833Z,98790.59
2022-11-07T16:10:54.914Z,98781.94
2022-11-07T16:13:24.402Z,98782.78
2022-11-07T16:15:56.416Z,98786.06
2022-11-07T16:18:22.923Z,98785.47
2022-11-07T16:20:50.007Z,98788.13
2022-11-07T16:23:16.999Z,98781.13
2022-11-07T16:25:46.095Z,98786.25
2022-11-07T16:28:24.779Z,98783.97
2022-11-07T16:30:51.876Z,98786.41
2022-11-07T16:33:18.417Z,98790.72
2022-11-07T16:35:48.200Z,98796.69
2022-11-07T16:38:16.771Z,98796.03
2022-11-07T16:40:44.084Z,98805.06
2022-11-07T16:43:11.167Z,98795.56
2022-11-07T16:45:43.537Z,98801.91
2022-11-07T16:48:18.968Z,98808.00
2022-11-07T16:50:45.786Z,98809.00
2022-11-07T16:53:12.728Z,98813.66
2022-11-07T16:55:41.405Z,98811.94
2022-11-07T16:58:32.441Z,98818.66
2022-11-07T17:01:00.268Z,98816.13
2022-11-07T17:03:26.698Z,98816.31
2022-11-07T17:05:55.533Z,98824.06
2022-11-07T17:08:25.625Z,98824.41
2022-11-07T17:10:52.196Z,98831.53
2022-11-07T17:13:18.678Z,98835.22
2022-11-07T17:15:45.592Z,98842.78
2022-11-07T17:18:22.462Z,98835.38
2022-11-07T17:20:51.237Z,98834.91
2022-11-07T17:23:18.302Z,98835.09
2022-11-07T17:25:53.010Z,98831.78
2022-11-07T17:28:20.437Z,98839.78
2022-11-07T17:30:46.778Z,98845.72
2022-11-07T17:33:13.702Z,98843.81
2022-11-07T17:35:40.425Z,98847.88
2022-11-07T17:38:07.253Z,98851.09
2022-11-07T17:40:34.451Z,98844.50
2022-11-07T17:43:00.905Z,98847.72
2022-11-07T17:45:28.058Z,98850.16
2022-11-07T17:47:54.756Z,98852.19
2022-11-07T17:50:22.412Z,98852.56
2022-11-07T17:52:49.264Z,98850.66
2022-11-07T17:55:15.728Z,98855.09
2022-11-07T17:57:42.296Z,98849.47
2022-11-07T18:00:15.577Z,98860.50
2022-11-07T18:02:42.132Z,98860.88
2022-11-07T18:05:13.801Z,98857.94
2022-11-07T18:07:40.191Z,98862.81
2022-11-07T18:10:07.444Z,98862.59
2022-11-07T18:12:34.033Z,98857.78
2022-11-07T18:15:02.533Z,98858.00
2022-11-07T18:17:29.072Z,98854.69
2022-11-07T18:19:55.772Z,98854.41
2022-11-07T18:22:22.182Z,98858.09
2022-11-07T18:24:48.594Z,98855.63
2022-11-07T18:27:14.952Z,98853.31
2022-11-07T18:29:41.590Z,98847.78
2022-11-07T18:32:07.968Z,98852.97
2022-11-07T18:34:34.406Z,98856.00
2022-11-07T18:37:00.767Z,98854.69
2022-11-07T18:39:27.290Z,98845.63
2022-11-07T18:41:53.647Z,98852.31
2022-11-07T18:44:20.107Z,98847.19
2022-11-07T18:46:47.240Z,98848.38
2022-11-07T18:49:17.219Z,98844.56
2022-11-07T18:51:44.044Z,98843.09
2022-11-07T18:54:11.502Z,98850.47
2022-11-07T18:56:38.859Z,98850.63
2022-11-07T18:59:05.327Z,98847.66
2022-11-07T19:01:32.216Z,98836.09
2022-11-07T19:04:01.432Z,98838.88
2022-11-07T19:06:29.259Z,98843.91
2022-11-07T19:08:55.982Z,98844.44
2022-11-07T19:11:25.408Z,98843.34
2022-11-07T19:13:52.656Z,98845.72
2022-11-07T19:16:19.893Z,98849.09
2022-11-07T19:18:49.576Z,98844.84
2022-11-07T19:21:19.683Z,98846.22
2022-11-07T19:23:47.745Z,98852.91
2022-11-07T19:26:14.116Z,98852.91
2022-11-07T19:28:40.731Z,98854.09
2022-11-07T19:31:09.949Z,98851.97
2022-11-07T19:33:36.369Z,98858.47
2022-11-07T19:36:05.708Z,98857.72
2022-11-07T19:38:33.329Z,98856.72
2022-11-07T19:41:07.325Z,98867.22
2022-11-07T19:43:35.202Z,98863.44
2022-11-07T19:46:06.992Z,98860.47
2022-11-07T19:48:33.378Z,98865.50
2022-11-07T19:50:59.868Z,98863.22
2022-11-07T19:53:26.535Z,98856.75
2022-11-07T19:55:53.199Z,98863.25
2022-11-07T19:58:19.572Z,98863.59
2022-11-07T20:00:46.054Z,98857.81
2022-11-07T20:03:12.576Z,98860.63
2022-11-07T20:05:39.669Z,98860.16
2022-11-07T20:08:06.169Z,98872.16
2022-11-07T20:10:33.115Z,98864.69
2022-11-07T20:12:59.466Z,98873.00
2022-11-07T20:15:25.877Z,98876.19
2022-11-07T20:17:52.512Z,98875.53
2022-11-07T20:20:19.083Z,98875.53
2022-11-07T20:22:46.696Z,98876.06
2022-11-07T20:25:13.485Z,98877.56
2022-11-07T20:27:40.057Z,98877.09
2022-11-07T20:30:07.841Z,98875.44
2022-11-07T20:32:34.288Z,98880.91
2022-11-07T20:35:00.793Z,98880.44
2022-11-07T20:37:27.457Z,98878.28
2022-11-07T20:39:53.787Z,98880.13
2022-11-07T20:42:20.196Z,98872.84
2022-11-07T20:44:46.751Z,98875.19
2022-11-07T20:47:13.173Z,98876.69
2022-11-07T20:49:41.360Z,98874.53
2022-11-07T20:52:08.285Z,98879.50
2022-11-07T20:54:35.990Z,98880.03
2022-11-07T20:57:03.197Z,98888.16
2022-11-07T20:59:29.608Z,98884.19
2022-11-07T21:02:01.724Z,98891.16
2022-11-07T21:04:33.471Z,98889.69
2022-11-07T21:07:06.466Z,98890.16
2022-11-07T21:09:33.034Z,98902.28
2022-11-07T21:11:59.471Z,98905.47
2022-11-07T21:14:25.897Z,98901.50
2022-11-07T21:16:52.478Z,98900.97
2022-11-07T21:19:19.164Z,98907.63
2022-11-07T21:21:45.446Z,98908.13
2022-11-07T21:24:11.928Z,98910.78
2022-11-07T21:26:38.688Z,98902.16
2022-11-07T21:29:08.763Z,98906.94
2022-11-07T21:31:37.064Z,98911.09
2022-11-07T21:34:05.586Z,98909.41
2022-11-07T21:36:32.229Z,99288.94
2022-11-07T21:39:00.186Z,99273.28
2022-11-07T21:41:27.723Z,99275.72
2022-11-07T21:43:54.176Z,99276.03
2022-11-07T21:46:22.862Z,99270.34
2022-11-07T21:48:49.869Z,99263.25
2022-11-07T21:51:24.920Z,99263.25
2022-11-07T21:53:52.371Z,99261.06
2022-11-07T21:56:21.912Z,99250.63
2022-11-07T21:58:53.724Z,99247.47
2022-11-07T22:01:21.024Z,99254.72
2022-11-07T22:04:06.202Z,99244.56
2022-11-07T22:06:35.352Z,99245.88
2022-11-07T22:09:02.556Z,99243.22
2022-11-07T22:11:29.351Z,99244.69
2022-11-07T22:13:55.895Z,99247.19
2022-11-07T22:16:22.940Z,99230.78
2022-11-07T22:18:49.859Z,99230.22
2022-11-07T22:21:22.121Z,99229.03
2022-11-07T22:23:49.117Z,99220.72
2022-11-07T22:26:18.142Z,99211.25
2022-11-07T22:28:46.336Z,99213.25
2022-11-07T22:31:16.176Z,99218.00
2022-11-07T22:33:42.755Z,99204.91
2022-11-07T22:36:10.551Z,99205.06
2022-11-07T22:38:38.039Z,99210.34
2022-11-07T22:41:09.702Z,99201.75
2022-11-07T22:43:36.366Z,99203.72
2022-11-07T22:46:04.512Z,99191.47
2022-11-07T22:48:30.962Z,99186.31
2022-11-07T22:51:07.896Z,99189.75
2022-11-07T22:53:35.090Z,99197.81
2022-11-07T22:56:17.225Z,99195.03
2022-11-07T22:58:45.105Z,99191.34
2022-11-07T23:01:20.133Z,99190.34
2022-11-07T23:03:47.337Z,99185.19
2022-11-07T23:06:14.444Z,99186.50
2022-11-07T23:08:40.899Z,99191.97
2022-11-07T23:14:12.106Z,99191.06
2022-11-07T23:16:43.461Z,99175.81
2022-11-07T23:19:13.412Z,99181.72
2022-11-07T23:21:40.365Z,99189.16
2022-11-07T23:24:07.416Z,99182.50
2022-11-07T23:26:35.114Z,99181.69
2022-11-07T23:29:16.355Z,99176.81
2022-11-07T23:31:44.520Z,99176.16
2022-11-07T23:34:11.332Z,99173.94
2022-11-07T23:36:38.086Z,99168.97
2022-11-07T23:39:08.705Z,99170.09
2022-11-07T23:41:35.253Z,99174.72
2022-11-07T23:44:01.985Z,99172.50
2022-11-07T23:46:28.540Z,99169.03
2022-11-07T23:48:54.939Z,99161.56
2022-11-07T23:51:21.396Z,99153.75
2022-11-07T23:53:47.736Z,99156.56
2022-11-07T23:56:14.233Z,99157.69
2022-11-07T23:58:40.702Z,99152.72
